Damiansville, Illinois
Current Conditions -  °F | °C
As of 11:58 AM on Friday 28 Nov 2014 (Local Time) from KBLV Reporting Station
Clear Clear  
Wind Chill: 32°   Ceiling: Unl
Heat Index: 40°   Visibility: 10mi
Dew Point: 33°   Wind: 15mph
Humidity: 74%   Direction: 170°S
Pressure: 30.1"   Gusts: 25mph
Location:  38.526°N, 89.6203°W
Report Text: KBLV 281758Z AUTO 17013G22KT 10SM CLR 05/01 A3010 RMK AO2 PRESFR SLP201 T00470005 10047 21049 57046
Loading
Personal Weather Stations






























Interactive Weather Map New forecast layout! Learn more

10-Day Weather Forecast

Advertisements
Track Severe Weather on mobile